Time;durP1;ratioP1;P1;durP2;ratioP2;P2;SDS_P1;SDS_P2;PMS_P1;PMS_P2;Temp;Humidity;BMP_temperature;BMP_pressure;BME280_temperature;BME280_humidity;BME280_pressure;Samples;Min_cycle;Max_cycle;Signal;HPM_P1;HPM_P2
2022/10/10 17:29:00;;;;;;;6.13;5.05;;;15.80;99.90;;;;;;5130410;27;20501;-81
2022/10/10 17:31:28;;;;;;;3.00;2.50;;;15.50;99.90;;;;;;5101820;28;20189;-81
2022/10/10 17:33:59;;;;;;;1.98;1.70;;;15.10;99.90;;;;;;5099584;28;20205;-81
2022/10/10 17:36:28;;;;;;;3.72;1.70;;;15.00;99.90;;;;;;5095254;28;20207;-82
2022/10/10 17:38:58;;;;;;;2.60;1.30;;;14.90;99.90;;;;;;5096255;28;20217;-81
2022/10/10 17:41:27;;;;;;;4.18;2.17;;;14.90;99.90;;;;;;5101168;28;21163;-81
2022/10/10 17:43:55;;;;;;;7.53;2.90;;;14.80;99.90;;;;;;5095409;28;20195;-81
2022/10/10 17:46:26;;;;;;;5.78;2.17;;;14.80;99.90;;;;;;5099567;28;20211;-81
2022/10/10 17:48:53;;;;;;;4.20;2.03;;;14.60;99.90;;;;;;5099025;28;20201;-81
2022/10/10 17:51:22;;;;;;;11.25;1.92;;;14.50;99.90;;;;;;5094134;28;20238;-82
2022/10/10 17:53:50;;;;;;;4.53;2.03;;;14.50;99.90;;;;;;5092987;28;20196;-81
2022/10/10 17:56:22;;;;;;;3.38;1.55;;;14.50;99.90;;;;;;5099966;28;20200;-81
2022/10/10 17:58:50;;;;;;;3.95;1.80;;;14.60;99.90;;;;;;5096680;28;20235;-81
2022/10/10 18:01:20;;;;;;;7.20;2.15;;;14.50;99.90;;;;;;5089694;28;20213;-82
2022/10/10 18:03:48;;;;;;;8.55;1.67;;;14.50;99.90;;;;;;5094010;28;20201;-82
2022/10/10 18:06:19;;;;;;;8.30;1.85;;;14.40;99.90;;;;;;5108540;28;20216;-81
2022/10/10 18:08:47;;;;;;;4.57;1.50;;;14.50;99.90;;;;;;5097208;28;20208;-81
2022/10/10 18:11:16;;;;;;;8.38;2.60;;;14.60;99.90;;;;;;5110901;28;20205;-81
2022/10/10 18:13:44;;;;;;;7.55;1.85;;;14.50;99.90;;;;;;5096631;28;20209;-81
2022/10/10 18:16:13;;;;;;;5.03;2.30;;;14.50;99.90;;;;;;5094849;28;20197;-82
2022/10/10 18:18:42;;;;;;;5.80;1.77;;;14.60;99.90;;;;;;5095720;28;20216;-81
2022/10/10 18:21:12;;;;;;;6.43;1.90;;;14.60;99.90;;;;;;5094216;28;20202;-81
2022/10/10 18:23:41;;;;;;;6.68;1.60;;;14.70;99.90;;;;;;5105795;28;20224;-82
2022/10/10 18:26:13;;;;;;;6.07;1.80;;;14.70;99.90;;;;;;5085427;28;20201;-80
2022/10/10 18:28:42;;;;;;;5.35;2.42;;;14.70;99.90;;;;;;5092435;28;20764;-80
2022/10/10 18:31:11;;;;;;;8.02;1.80;;;14.70;99.90;;;;;;5089478;28;20208;-78
2022/10/10 18:33:38;;;;;;;7.65;2.40;;;14.70;99.90;;;;;;5083491;28;20201;-81
2022/10/10 18:36:07;;;;;;;11.02;1.75;;;14.60;99.90;;;;;;5091922;28;20247;-80
2022/10/10 18:38:36;;;;;;;5.78;1.92;;;14.70;99.90;;;;;;5083431;28;20229;-81
2022/10/10 18:41:05;;;;;;;7.40;2.13;;;14.60;99.90;;;;;;5076353;28;20193;-80
2022/10/10 18:43:37;;;;;;;6.13;1.90;;;14.60;99.90;;;;;;5076035;28;20213;-80
2022/10/10 18:46:06;;;;;;;9.55;1.85;;;14.50;99.90;;;;;;5074255;28;20210;-79
2022/10/10 18:48:33;;;;;;;9.60;2.47;;;14.50;99.90;;;;;;5062412;28;20186;-80
2022/10/10 18:51:02;;;;;;;7.00;2.38;;;14.50;99.90;;;;;;5069462;28;21249;-81
2022/10/10 18:53:37;;;;;;;6.63;2.60;;;14.50;99.90;;;;;;5090924;28;20208;-80
2022/10/10 18:56:10;;;;;;;6.60;1.92;;;14.40;99.90;;;;;;5075158;28;20208;-81
2022/10/10 18:58:38;;;;;;;9.02;2.50;;;14.40;99.90;;;;;;5072311;28;20205;-81
2022/10/10 19:01:08;;;;;;;10.15;2.10;;;14.40;99.90;;;;;;5071928;28;20206;-81
2022/10/10 19:03:35;;;;;;;12.25;3.35;;;14.50;99.90;;;;;;5076163;28;20201;-81
2022/10/10 19:06:04;;;;;;;7.50;2.42;;;14.40;99.90;;;;;;5073352;28;20226;-81
2022/10/10 19:08:31;;;;;;;11.50;2.70;;;14.50;99.90;;;;;;5069733;28;20193;-81
2022/10/10 19:11:01;;;;;;;7.68;1.70;;;14.40;99.90;;;;;;5076331;28;20216;-81
2022/10/10 19:13:28;;;;;;;5.60;2.25;;;14.30;99.90;;;;;;5066558;28;20214;-81
2022/10/10 19:15:56;;;;;;;8.98;2.30;;;14.40;99.90;;;;;;5072278;28;20213;-81
2022/10/10 19:18:23;;;;;;;9.50;2.42;;;14.30;99.90;;;;;;5073975;28;20217;-81
2022/10/10 19:20:58;;;;;;;5.47;2.00;;;14.30;99.90;;;;;;5074010;28;20225;-81
2022/10/10 19:23:25;;;;;;;4.93;1.63;;;14.30;99.90;;;;;;5073123;28;20208;-81
2022/10/10 19:25:53;;;;;;;7.55;1.80;;;14.30;99.90;;;;;;5064045;28;20225;-81
2022/10/10 19:28:21;;;;;;;5.05;1.95;;;14.30;99.90;;;;;;5076911;28;20212;-81
2022/10/10 19:30:49;;;;;;;5.97;2.80;;;14.30;99.90;;;;;;5073805;28;20291;-81
2022/10/10 19:33:16;;;;;;;5.88;2.05;;;14.30;99.90;;;;;;5071892;28;20208;-81
2022/10/10 19:35:46;;;;;;;6.35;2.10;;;14.30;99.90;;;;;;5069117;28;20229;-81
2022/10/10 19:38:14;;;;;;;8.20;2.30;;;14.30;99.90;;;;;;5072978;28;20225;-81
2022/10/10 19:40:44;;;;;;;9.30;2.33;;;14.30;99.90;;;;;;5068981;28;20194;-81
2022/10/10 19:43:11;;;;;;;5.45;2.00;;;14.30;99.90;;;;;;5071903;28;20662;-81
2022/10/10 19:45:41;;;;;;;6.18;2.10;;;14.20;99.90;;;;;;5062922;28;20218;-81
2022/10/10 19:48:10;;;;;;;6.25;2.60;;;14.20;99.90;;;;;;5080559;28;20182;-81
2022/10/10 19:50:39;;;;;;;6.40;2.50;;;14.20;99.90;;;;;;5074931;28;20224;-82
2022/10/10 19:53:08;;;;;;;8.68;2.75;;;14.10;99.90;;;;;;5090961;28;20193;-82
2022/10/10 19:55:38;;;;;;;9.57;2.92;;;14.00;99.90;;;;;;5074776;28;20217;-80
2022/10/10 19:58:10;;;;;;;5.70;2.05;;;13.90;99.90;;;;;;5073088;28;20685;-80
2022/10/10 20:00:44;;;;;;;5.82;2.58;;;14.00;99.90;;;;;;5070554;28;20201;-80
2022/10/10 20:03:11;;;;;;;10.68;2.65;;;13.90;99.90;;;;;;5072821;28;20202;-81
2022/10/10 20:05:39;;;;;;;6.07;2.20;;;13.90;99.90;;;;;;5069087;28;20217;-81
2022/10/10 20:08:06;;;;;;;5.88;2.15;;;13.90;99.90;;;;;;5069352;28;20197;-81
2022/10/10 20:10:34;;;;;;;7.40;3.20;;;13.90;99.90;;;;;;5075889;28;20201;-81
2022/10/10 20:13:02;;;;;;;7.30;2.03;;;13.80;99.90;;;;;;5069094;28;20209;-80
2022/10/10 20:15:30;;;;;;;7.10;2.40;;;13.80;99.90;;;;;;5075880;28;20701;-81
2022/10/10 20:17:58;;;;;;;8.45;2.22;;;13.70;99.90;;;;;;5072221;28;20205;-79
2022/10/10 20:20:26;;;;;;;8.55;2.33;;;13.70;99.90;;;;;;5086504;28;20198;-80
2022/10/10 20:22:53;;;;;;;7.13;2.05;;;13.50;99.90;;;;;;5069277;28;20212;-80
2022/10/10 20:25:21;;;;;;;7.05;2.20;;;13.40;99.90;;;;;;5069577;28;20592;-80
2022/10/10 20:27:48;;;;;;;6.40;2.13;;;13.30;99.90;;;;;;5080376;28;20217;-81
2022/10/10 20:30:16;;;;;;;8.43;2.17;;;13.30;99.90;;;;;;5071031;28;20194;-81
2022/10/10 20:32:43;;;;;;;8.30;2.67;;;13.30;99.90;;;;;;5057904;22;20223;-72
2022/10/10 20:35:13;;;;;;;8.70;1.98;;;13.20;99.90;;;;;;5010374;28;20645;-72
2022/10/10 20:37:40;;;;;;;8.55;2.20;;;13.20;99.90;;;;;;5006587;28;20200;-72
2022/10/10 20:40:09;;;;;;;8.98;2.42;;;13.10;99.90;;;;;;5010392;28;20692;-72
2022/10/10 20:42:36;;;;;;;7.10;1.90;;;12.90;99.90;;;;;;5004074;28;20229;-72
2022/10/10 20:45:05;;;;;;;6.75;2.08;;;13.00;99.90;;;;;;4991752;28;20207;-72
2022/10/10 20:47:32;;;;;;;4.38;2.22;;;13.00;99.90;;;;;;5001130;28;20212;-72
2022/10/10 20:49:59;;;;;;;7.05;2.30;;;13.00;99.90;;;;;;4996530;28;20533;-72
2022/10/10 20:52:30;;;;;;;5.20;1.98;;;12.80;99.90;;;;;;4987426;28;20231;-72
2022/10/10 20:54:58;;;;;;;10.70;2.35;;;12.80;99.90;;;;;;4984964;28;20235;-74
2022/10/10 20:57:25;;;;;;;6.90;2.30;;;12.70;99.90;;;;;;5004984;28;20208;-75
2022/10/10 20:59:52;;;;;;;7.80;2.22;;;12.40;99.90;;;;;;4988543;28;20224;-75
2022/10/10 21:02:20;;;;;;;5.47;2.40;;;12.30;99.90;;;;;;4996543;28;20224;-75
2022/10/10 21:04:47;;;;;;;6.30;2.20;;;12.40;99.90;;;;;;4993650;28;20251;-75
2022/10/10 21:07:15;;;;;;;7.80;2.55;;;12.30;99.90;;;;;;5000859;28;20666;-75
2022/10/10 21:09:43;;;;;;;3.60;2.15;;;12.30;99.90;;;;;;4982286;28;20208;-75
2022/10/10 21:12:12;;;;;;;6.80;2.03;;;12.30;99.90;;;;;;4987630;28;20224;-75
2022/10/10 21:14:39;;;;;;;8.40;2.30;;;12.30;99.90;;;;;;4984195;28;20203;-75
2022/10/10 21:17:07;;;;;;;7.50;2.20;;;12.20;99.90;;;;;;5011807;28;20219;-75
2022/10/10 21:19:34;;;;;;;6.25;2.10;;;12.20;99.90;;;;;;5012351;28;20212;-75
2022/10/10 21:22:01;;;;;;;8.10;2.40;;;12.20;99.90;;;;;;5004836;28;20224;-75
2022/10/10 21:24:29;;;;;;;8.52;2.53;;;12.20;99.90;;;;;;4994327;28;20285;-75
2022/10/10 21:26:58;;;;;;;6.28;2.65;;;12.20;99.90;;;;;;4999498;28;20209;-75
2022/10/10 21:29:25;;;;;;;5.72;2.55;;;12.20;99.90;;;;;;5005724;28;20211;-75
2022/10/10 21:31:52;;;;;;;9.15;2.75;;;12.00;99.90;;;;;;5004366;28;20569;-75
2022/10/10 21:34:20;;;;;;;9.73;2.38;;;12.00;99.90;;;;;;4993930;28;20200;-75
2022/10/10 21:36:47;;;;;;;8.07;2.65;;;12.00;99.90;;;;;;4988161;28;20197;-75
2022/10/10 21:39:27;;;;;;;8.38;2.97;;;12.00;99.90;;;;;;4988807;28;20582;-75
2022/10/10 21:41:54;;;;;;;6.70;2.50;;;11.90;99.90;;;;;;5010390;28;20568;-75
2022/10/10 21:44:23;;;;;;;8.50;2.78;;;12.00;99.90;;;;;;4993223;28;20565;-75
2022/10/10 21:46:51;;;;;;;9.82;3.15;;;12.00;99.90;;;;;;5007668;28;20208;-75
2022/10/10 21:49:18;;;;;;;6.25;2.30;;;12.10;99.90;;;;;;5007195;28;20204;-75
2022/10/10 21:51:45;;;;;;;6.90;2.33;;;12.10;99.90;;;;;;5005319;28;20196;-75
2022/10/10 21:54:13;;;;;;;5.15;2.50;;;12.00;99.90;;;;;;4993098;28;20196;-75
2022/10/10 21:56:41;;;;;;;6.40;3.00;;;11.90;99.90;;;;;;4999891;28;20562;-75
2022/10/10 21:59:09;;;;;;;7.38;2.47;;;12.00;99.90;;;;;;4999848;28;20247;-75
2022/10/10 22:01:38;;;;;;;5.75;2.75;;;12.00;99.90;;;;;;5010897;28;20235;-75
2022/10/10 22:04:06;;;;;;;7.50;3.00;;;12.00;99.90;;;;;;5004818;28;20606;-75
2022/10/10 22:06:33;;;;;;;7.72;2.90;;;11.90;99.90;;;;;;4991864;28;20196;-75
2022/10/10 22:09:02;;;;;;;7.63;3.20;;;11.90;99.90;;;;;;4991291;28;20201;-75
2022/10/10 22:11:31;;;;;;;8.40;3.38;;;11.90;99.90;;;;;;4999622;28;20222;-75
2022/10/10 22:14:01;;;;;;;5.57;2.85;;;11.90;99.90;;;;;;5003573;28;20224;-75
2022/10/10 22:16:28;;;;;;;10.55;3.33;;;11.90;99.90;;;;;;5008725;28;20204;-75
2022/10/10 22:18:58;;;;;;;8.90;3.20;;;11.90;99.90;;;;;;4991626;28;20208;-75
2022/10/10 22:21:27;;;;;;;9.43;4.10;;;11.90;99.90;;;;;;5009888;28;20577;-75
2022/10/10 22:23:54;;;;;;;8.82;4.28;;;11.90;99.90;;;;;;4993957;28;20220;-75
2022/10/10 22:26:21;;;;;;;9.98;3.97;;;11.90;99.90;;;;;;4997373;28;20196;-75
2022/10/10 22:29:07;;;;;;;10.07;3.60;;;11.80;99.90;;;;;;4998053;28;20204;-75
2022/10/10 22:31:38;;;;;;;9.27;3.40;;;11.80;99.90;;;;;;5012000;28;20201;-75
2022/10/10 22:34:07;;;;;;;7.82;3.00;;;11.70;99.90;;;;;;4993656;28;20220;-75
2022/10/10 22:36:34;;;;;;;10.07;3.35;;;11.70;99.90;;;;;;5014503;28;20201;-75
2022/10/10 22:39:02;;;;;;;10.68;3.78;;;11.70;99.90;;;;;;4997719;28;20564;-76
2022/10/10 22:41:29;;;;;;;8.10;3.60;;;11.70;99.90;;;;;;5002204;28;20192;-75
2022/10/10 22:44:00;;;;;;;11.35;4.20;;;11.70;99.90;;;;;;5009628;28;20228;-75
2022/10/10 22:46:27;;;;;;;6.72;3.22;;;11.60;99.90;;;;;;5011058;28;20207;-75
2022/10/10 22:48:55;;;;;;;9.05;3.97;;;11.70;99.90;;;;;;5009028;28;20682;-75
2022/10/10 22:51:23;;;;;;;10.88;3.75;;;11.70;99.90;;;;;;5005515;28;20204;-72
2022/10/10 22:53:51;;;;;;;10.10;5.23;;;11.60;99.90;;;;;;4984508;28;20215;-72
2022/10/10 22:56:20;;;;;;;7.88;3.85;;;11.70;99.90;;;;;;4994109;28;20192;-72
2022/10/10 22:58:48;;;;;;;9.02;3.85;;;11.70;99.90;;;;;;5007144;28;20231;-73
2022/10/10 23:01:17;;;;;;;8.52;3.47;;;11.70;99.90;;;;;;4993466;28;20216;-73
2022/10/10 23:03:47;;;;;;;7.03;3.10;;;11.70;99.90;;;;;;4998984;28;20220;-72
2022/10/10 23:06:15;;;;;;;8.40;3.22;;;11.60;99.90;;;;;;5009802;28;20688;-72
2022/10/10 23:08:44;;;;;;;5.65;3.03;;;11.60;99.90;;;;;;4997420;28;20211;-73
2022/10/10 23:11:12;;;;;;;9.95;3.38;;;11.50;99.90;;;;;;4993695;28;20208;-73
2022/10/10 23:13:39;;;;;;;8.07;3.60;;;11.40;99.90;;;;;;4992155;28;20682;-73
2022/10/10 23:16:07;;;;;;;5.47;3.30;;;11.30;99.90;;;;;;4992163;28;20204;-73
2022/10/10 23:18:34;;;;;;;7.80;3.35;;;11.40;99.90;;;;;;5007576;28;20205;-73
2022/10/10 23:21:02;;;;;;;11.48;4.10;;;11.40;99.90;;;;;;4993643;28;20227;-73
2022/10/10 23:23:29;;;;;;;10.98;3.45;;;11.30;99.90;;;;;;5006544;28;20227;-72
2022/10/10 23:25:58;;;;;;;5.75;3.22;;;11.40;99.90;;;;;;5000955;28;20205;-73
2022/10/10 23:28:25;;;;;;;5.57;2.85;;;11.30;99.90;;;;;;4987431;28;20200;-73
2022/10/10 23:30:53;;;;;;;7.33;3.30;;;11.20;99.90;;;;;;4995751;28;20196;-73
2022/10/10 23:33:20;;;;;;;12.63;3.73;;;11.20;99.90;;;;;;4993334;28;20235;-72
2022/10/10 23:35:57;;;;;;;13.60;4.45;;;11.20;99.90;;;;;;4993838;28;20204;-72
2022/10/10 23:38:24;;;;;;;10.63;4.40;;;11.20;99.90;;;;;;5002975;28;20258;-72
2022/10/10 23:40:52;;;;;;;11.40;4.20;;;11.20;99.90;;;;;;5011299;28;20224;-72
2022/10/10 23:43:21;;;;;;;9.60;3.50;;;11.30;99.90;;;;;;4994179;28;20242;-72
2022/10/10 23:45:48;;;;;;;12.77;4.20;;;11.20;99.90;;;;;;5007582;28;20234;-72
2022/10/10 23:48:16;;;;;;;12.05;3.65;;;11.20;99.90;;;;;;4977987;28;20205;-72
2022/10/10 23:50:44;;;;;;;9.70;3.50;;;11.20;99.90;;;;;;5004237;28;20211;-72
2022/10/10 23:53:12;;;;;;;11.93;4.65;;;11.10;99.90;;;;;;4989392;28;20598;-73
2022/10/10 23:55:39;;;;;;;9.33;5.30;;;11.10;99.90;;;;;;5007669;28;20212;-72
2022/10/10 23:58:08;;;;;;;10.27;4.22;;;11.10;99.90;;;;;;4982424;28;20209;-72
